createdAt,value
2023-05-20T00:01:16.666Z,3.00
2023-05-20T00:03:44.052Z,3.05
2023-05-20T00:06:11.789Z,2.83
2023-05-20T00:08:39.226Z,2.90
2023-05-20T00:11:06.549Z,3.20
2023-05-20T00:13:39.188Z,3.45
2023-05-20T00:16:08.028Z,3.30
2023-05-20T00:18:38.603Z,4.05
2023-05-20T00:21:06.468Z,3.55
2023-05-20T00:23:33.834Z,4.05
2023-05-20T00:26:01.164Z,5.00
2023-05-20T00:28:28.523Z,4.75
2023-05-20T00:30:55.829Z,5.20
2023-05-20T00:33:23.137Z,4.88
2023-05-20T00:35:50.500Z,5.88
2023-05-20T00:38:17.778Z,5.00
2023-05-20T00:40:45.000Z,5.95
2023-05-20T00:43:12.351Z,5.40
2023-05-20T00:45:40.114Z,5.13
2023-05-20T00:48:08.108Z,5.40
2023-05-20T00:50:35.791Z,5.45
2023-05-20T00:53:04.128Z,5.57
2023-05-20T01:10:18.933Z,4.60
2023-05-20T01:12:55.871Z,5.57
2023-05-20T01:15:27.064Z,6.22
2023-05-20T01:18:01.927Z,5.85
2023-05-20T01:20:32.684Z,5.65
2023-05-20T01:23:00.248Z,6.28
2023-05-20T01:25:27.799Z,6.32
2023-05-20T01:27:58.211Z,5.93
2023-05-20T01:30:37.248Z,6.65
2023-05-20T01:33:12.543Z,6.53
2023-05-20T01:35:43.105Z,6.80
2023-05-20T01:38:12.014Z,5.97
2023-05-20T01:40:41.940Z,6.78
2023-05-20T01:43:10.448Z,6.38
2023-05-20T01:48:05.997Z,6.78
2023-05-20T01:50:33.363Z,6.85
2023-05-20T01:53:00.713Z,6.43
2023-05-20T01:55:28.081Z,7.22
2023-05-20T01:57:57.740Z,7.05
2023-05-20T02:00:25.443Z,7.30
2023-05-20T02:02:52.733Z,7.53
2023-05-20T02:05:20.105Z,7.53
2023-05-20T02:07:47.455Z,7.75
2023-05-20T02:10:14.791Z,7.28
2023-05-20T02:12:42.827Z,7.00
2023-05-20T02:15:10.573Z,7.55
2023-05-20T02:17:38.034Z,7.57
2023-05-20T02:20:23.441Z,7.82
2023-05-20T02:22:50.900Z,6.88
2023-05-20T02:25:18.235Z,6.75
2023-05-20T02:27:45.656Z,6.93
2023-05-20T02:30:13.182Z,6.78
2023-05-20T02:33:23.770Z,6.30
2023-05-20T02:35:51.171Z,6.55
2023-05-20T02:38:18.512Z,6.03
2023-05-20T02:40:46.118Z,5.22
2023-05-20T02:43:13.429Z,6.40
2023-05-20T02:45:41.386Z,5.50
2023-05-20T02:48:08.985Z,5.55
2023-05-20T02:50:40.282Z,5.90
2023-05-20T02:53:07.792Z,5.45
2023-05-20T02:55:37.061Z,5.43
2023-05-20T02:58:36.568Z,5.75
2023-05-20T03:01:04.244Z,5.93
2023-05-20T03:03:32.022Z,5.85
2023-05-20T03:05:59.605Z,7.07
2023-05-20T03:08:27.135Z,6.30
2023-05-20T03:10:54.521Z,6.75
2023-05-20T03:13:21.919Z,6.93
2023-05-20T03:15:49.333Z,5.78
2023-05-20T03:18:16.651Z,6.47
2023-05-20T03:20:44.089Z,6.93
2023-05-20T03:23:11.585Z,5.70
2023-05-20T03:25:40.789Z,7.22
2023-05-20T03:28:09.638Z,6.43
2023-05-20T03:30:36.960Z,6.80
2023-05-20T03:33:06.057Z,6.38
2023-05-20T03:35:33.687Z,6.82
2023-05-20T03:38:01.908Z,6.90
2023-05-20T03:40:29.576Z,7.53
2023-05-20T03:42:56.944Z,6.88
2023-05-20T03:45:24.314Z,7.43
2023-05-20T03:47:52.162Z,6.90
2023-05-20T03:50:35.919Z,7.22
2023-05-20T03:53:03.300Z,7.20
2023-05-20T03:55:30.604Z,6.65
2023-05-20T03:57:59.484Z,7.72
2023-05-20T04:00:26.888Z,6.95
2023-05-20T04:02:54.255Z,6.88
2023-05-20T04:05:24.035Z,7.32
2023-05-20T04:08:36.730Z,6.72
2023-05-20T04:11:04.215Z,6.80
2023-05-20T04:13:31.657Z,6.82
2023-05-20T04:15:59.054Z,6.78
2023-05-20T04:18:30.000Z,7.07
2023-05-20T04:20:57.493Z,7.25
2023-05-20T04:23:24.931Z,6.35
2023-05-20T04:26:02.526Z,5.97
2023-05-20T04:28:31.875Z,6.60
2023-05-20T04:31:06.876Z,5.88
2023-05-20T04:33:38.071Z,5.38
2023-05-20T04:36:12.119Z,5.80
2023-05-20T04:38:40.307Z,6.53
2023-05-20T04:41:08.131Z,5.68
2023-05-20T04:43:35.486Z,5.63
2023-05-20T04:46:06.266Z,4.90
2023-05-20T04:48:34.441Z,5.47
2023-05-20T04:51:02.262Z,5.03
2023-05-20T04:53:30.812Z,5.22
2023-05-20T04:55:58.143Z,5.32
2023-05-20T04:58:25.770Z,4.85
2023-05-20T05:00:53.576Z,4.73
2023-05-20T05:03:21.172Z,5.13
2023-05-20T05:05:48.632Z,5.27
2023-05-20T05:08:17.434Z,4.50
2023-05-20T05:10:46.586Z,5.10
2023-05-20T05:13:13.980Z,4.93
2023-05-20T05:15:41.289Z,4.40
2023-05-20T05:18:08.867Z,4.75
2023-05-20T05:20:36.392Z,4.53
2023-05-20T05:23:05.207Z,4.53
2023-05-20T05:25:33.353Z,5.03
2023-05-20T05:28:01.865Z,5.25
2023-05-20T05:30:29.139Z,4.70
2023-05-20T05:32:56.610Z,4.75
2023-05-20T05:35:52.675Z,5.20
2023-05-20T05:38:37.738Z,5.10
2023-05-20T05:41:22.136Z,4.72
2023-05-20T05:43:49.489Z,5.40
2023-05-20T05:46:16.876Z,5.28
2023-05-20T05:48:49.831Z,5.10
2023-05-20T05:51:17.545Z,5.40
2023-05-20T05:53:44.901Z,5.15
2023-05-20T05:56:42.622Z,5.30
2023-05-20T05:59:22.868Z,5.53
2023-05-20T06:01:50.248Z,4.88
2023-05-20T06:04:17.566Z,5.13
2023-05-20T16:23:55.623Z,6.60
